createdAt,value
2019-05-26T00:01:38.627Z,16.90
2019-05-26T00:04:09.026Z,16.90
2019-05-26T00:06:39.375Z,16.90
2019-05-26T00:09:10.730Z,16.80
2019-05-26T00:11:43.563Z,16.70
2019-05-26T00:14:13.907Z,16.80
2019-05-26T00:16:44.239Z,16.60
2019-05-26T00:19:14.850Z,16.60
2019-05-26T00:21:45.106Z,16.60
2019-05-26T00:24:15.802Z,16.60
2019-05-26T00:26:46.077Z,16.70
2019-05-26T00:29:16.396Z,16.80
2019-05-26T00:31:46.644Z,16.80
2019-05-26T00:34:23.014Z,16.90
2019-05-26T00:36:53.375Z,16.90
2019-05-26T00:39:24.140Z,16.90
2019-05-26T00:41:54.876Z,16.90
2019-05-26T00:44:25.247Z,16.90
2019-05-26T00:46:55.508Z,17.00
2019-05-26T00:49:25.914Z,17.00
2019-05-26T00:51:56.254Z,17.10
2019-05-26T00:54:26.571Z,17.10
2019-05-26T00:56:56.987Z,17.10
2019-05-26T00:59:27.375Z,17.10
2019-05-26T01:01:57.694Z,17.10
2019-05-26T01:04:29.491Z,17.20
2019-05-26T01:06:59.817Z,17.20
2019-05-26T01:09:30.155Z,17.20
2019-05-26T01:12:03.836Z,17.20
2019-05-26T01:14:38.023Z,17.20
2019-05-26T01:17:08.398Z,17.20
2019-05-26T01:19:39.061Z,17.30
2019-05-26T01:22:13.778Z,17.30
2019-05-26T01:24:56.366Z,17.30
2019-05-26T01:27:27.103Z,17.30
2019-05-26T01:29:57.443Z,17.20
2019-05-26T01:32:27.704Z,17.20
2019-05-26T01:34:58.026Z,17.10
2019-05-26T01:37:28.464Z,17.10
2019-05-26T01:40:00.306Z,17.10
2019-05-26T01:42:30.638Z,17.10
2019-05-26T01:45:00.957Z,17.10
2019-05-26T01:47:31.327Z,17.10
2019-05-26T01:50:01.758Z,17.10
2019-05-26T01:52:32.486Z,17.10
2019-05-26T01:55:04.689Z,17.00
2019-05-26T01:57:34.941Z,17.00
2019-05-26T02:00:06.612Z,17.00
2019-05-26T02:02:37.478Z,17.00
2019-05-26T02:05:09.833Z,16.90
2019-05-26T02:07:40.134Z,16.90
2019-05-26T02:10:10.975Z,17.00
2019-05-26T02:12:41.257Z,17.00
2019-05-26T02:15:12.066Z,16.90
2019-05-26T02:17:42.445Z,16.90
2019-05-26T02:20:13.018Z,16.90
2019-05-26T02:22:43.273Z,16.90
2019-05-26T02:25:17.870Z,16.90
2019-05-26T02:27:49.731Z,16.90
2019-05-26T02:30:20.141Z,16.80
2019-05-26T02:32:52.262Z,16.80
2019-05-26T02:35:22.726Z,16.80
2019-05-26T02:37:53.049Z,16.80
2019-05-26T02:40:24.175Z,16.80
2019-05-26T02:42:54.465Z,16.80
2019-05-26T02:45:25.287Z,16.80
2019-05-26T02:47:55.587Z,16.90
2019-05-26T02:50:26.329Z,16.90
2019-05-26T02:52:56.538Z,16.80
2019-05-26T02:55:26.870Z,16.90
2019-05-26T02:57:57.187Z,16.80
2019-05-26T03:00:42.559Z,16.80
2019-05-26T03:03:14.304Z,16.70
2019-05-26T03:05:46.162Z,16.70
2019-05-26T03:08:16.886Z,16.70
2019-05-26T03:10:52.237Z,16.70
2019-05-26T03:13:22.534Z,16.70
2019-05-26T03:15:55.728Z,16.70
2019-05-26T03:18:28.979Z,16.70
2019-05-26T03:21:02.277Z,16.70
2019-05-26T03:23:34.213Z,16.70
2019-05-26T03:26:09.561Z,16.70
2019-05-26T03:28:39.890Z,16.70
2019-05-26T03:31:10.151Z,16.70
2019-05-26T03:33:41.911Z,16.70
2019-05-26T03:36:12.252Z,16.80
2019-05-26T03:38:42.551Z,16.80
2019-05-26T03:41:12.842Z,16.80
2019-05-26T03:43:43.163Z,16.80
2019-05-26T03:46:20.869Z,16.70
2019-05-26T03:48:52.658Z,16.80
2019-05-26T03:51:22.922Z,16.70
2019-05-26T03:53:53.206Z,16.70
2019-05-26T03:56:24.703Z,16.70
2019-05-26T03:58:54.978Z,16.70
2019-05-26T04:01:27.194Z,16.70
2019-05-26T04:03:57.513Z,16.70
2019-05-26T04:06:27.834Z,16.80
2019-05-26T04:08:58.145Z,16.80
2019-05-26T04:11:28.464Z,16.80
2019-05-26T04:13:58.727Z,16.80
2019-05-26T04:16:28.965Z,16.70
2019-05-26T04:18:59.576Z,16.70
2019-05-26T04:21:29.887Z,16.70
2019-05-26T04:24:00.209Z,16.60
2019-05-26T04:26:30.437Z,16.60
2019-05-26T04:29:00.679Z,16.70
2019-05-26T04:31:33.751Z,16.70
2019-05-26T04:34:04.091Z,16.80
2019-05-26T04:36:34.357Z,16.90
2019-05-26T04:39:06.821Z,16.80
2019-05-26T04:41:38.702Z,16.80
2019-05-26T04:44:08.950Z,16.80
2019-05-26T04:46:39.215Z,16.90
2019-05-26T04:49:10.554Z,16.90
2019-05-26T04:51:40.926Z,17.00
2019-05-26T04:54:11.215Z,16.90
2019-05-26T04:56:43.027Z,16.90
2019-05-26T04:59:13.318Z,17.00
2019-05-26T05:01:43.650Z,17.00
2019-05-26T05:04:13.910Z,16.90
2019-05-26T05:06:44.343Z,16.90
2019-05-26T05:09:18.571Z,16.90
2019-05-26T05:11:48.922Z,17.00
2019-05-26T05:14:19.662Z,17.00
2019-05-26T05:16:49.994Z,17.10
2019-05-26T05:19:21.434Z,17.10
2019-05-26T05:21:51.745Z,17.10
2019-05-26T05:24:22.106Z,17.20
2019-05-26T05:26:52.498Z,17.20
2019-05-26T05:29:22.836Z,17.20
2019-05-26T05:31:53.187Z,17.20
2019-05-26T05:34:23.519Z,17.20
2019-05-26T05:36:53.848Z,17.30
2019-05-26T05:39:24.174Z,17.30
2019-05-26T05:41:54.835Z,17.30
2019-05-26T05:44:25.165Z,17.40
2019-05-26T05:46:55.888Z,17.40
2019-05-26T05:49:26.147Z,17.50
2019-05-26T05:51:56.724Z,17.60
2019-05-26T05:54:26.986Z,17.60
2019-05-26T05:56:57.366Z,17.70
2019-05-26T05:59:27.708Z,17.70
2019-05-26T06:01:59.563Z,17.80
2019-05-26T06:04:29.900Z,17.90
2019-05-26T06:07:00.529Z,17.90
2019-05-26T06:09:30.870Z,18.00
2019-05-26T06:12:02.181Z,18.20
2019-05-26T06:15:09.957Z,18.20
2019-05-26T06:17:41.301Z,18.30
2019-05-26T06:20:11.973Z,18.40
2019-05-26T06:22:42.223Z,18.50
2019-05-26T06:25:12.470Z,18.50
2019-05-26T06:27:42.808Z,18.60
2019-05-26T06:30:13.187Z,18.60
2019-05-26T06:32:43.527Z,18.60
2019-05-26T06:35:15.768Z,18.70
2019-05-26T06:37:46.088Z,18.80
2019-05-26T06:40:16.931Z,18.90
2019-05-26T06:42:47.270Z,19.00
2019-05-26T06:45:20.221Z,19.10
2019-05-26T06:47:52.033Z,19.10
2019-05-26T06:50:22.362Z,19.30
2019-05-26T06:52:54.488Z,19.30
2019-05-26T06:55:24.743Z,19.40
2019-05-26T06:57:56.484Z,19.50
2019-05-26T07:00:26.910Z,19.50
2019-05-26T07:02:58.796Z,19.50
2019-05-26T07:05:29.068Z,19.60
2019-05-26T07:07:59.388Z,19.60
2019-05-26T07:10:32.253Z,19.70
2019-05-26T07:13:02.572Z,19.70
2019-05-26T07:15:32.899Z,19.80
2019-05-26T07:18:03.221Z,19.90
2019-05-26T07:20:33.481Z,20.10
2019-05-26T07:23:07.092Z,20.20
2019-05-26T07:25:37.677Z,20.30
2019-05-26T07:28:08.005Z,20.40
2019-05-26T07:30:38.315Z,20.40
2019-05-26T07:33:10.495Z,20.40
2019-05-26T07:35:41.197Z,20.40
2019-05-26T07:38:11.486Z,20.50
2019-05-26T07:40:41.721Z,20.50
2019-05-26T07:43:12.098Z,20.60
2019-05-26T07:45:42.490Z,20.60
2019-05-26T07:48:12.750Z,20.60
2019-05-26T07:50:43.051Z,20.70
2019-05-26T07:53:16.711Z,20.80
2019-05-26T07:55:46.953Z,20.80
2019-05-26T07:58:22.362Z,20.90
2019-05-26T08:00:52.675Z,21.00
2019-05-26T08:03:22.956Z,21.20
2019-05-26T08:05:53.208Z,21.10
2019-05-26T08:08:26.909Z,21.20
2019-05-26T08:10:57.247Z,21.20
2019-05-26T08:13:27.588Z,21.20
2019-05-26T08:15:57.862Z,21.30
2019-05-26T08:18:28.112Z,21.40
2019-05-26T08:20:58.446Z,21.40
2019-05-26T08:23:28.777Z,21.40
2019-05-26T08:26:00.750Z,21.50
2019-05-26T08:28:36.509Z,21.50
2019-05-26T08:31:06.855Z,21.60
2019-05-26T08:33:37.166Z,21.70
2019-05-26T08:36:07.484Z,21.60
2019-05-26T08:38:37.756Z,21.70
2019-05-26T08:41:08.067Z,21.90
2019-05-26T08:43:38.318Z,21.90
2019-05-26T08:46:08.659Z,21.90
2019-05-26T08:48:39.047Z,21.90
2019-05-26T08:51:10.722Z,22.10
2019-05-26T08:53:40.950Z,22.10
